Latest Coastal Weather Observations for Double Island Point

IDQ60701

Issued at 6:03 am EST Monday 23 May 2022 (issued every 10 minutes, with the page automatically refreshed every 10 minutes)

About coastal observations | Map of coastal stations | Coastal observations for QLD | Marine services | Other Formats
Station Details ID: 040068 Name: DOUBLE ISLAND POINT LIGHTHOUSE Lat: -25.93 Lon: 153.19 Height: 95.64 m
Data from the previous 72 hours. | See also: Recent months at Double Island Point
Date/Time
EST
Wind Sea
Height
m
Swell Vis
km
Cloud Weather Temp
°C
Press
MSL
hPa
Rain since
9am
mm
Dir  Spd
kts
Gust
kts
Height
m
Period
s
Dir
23/06:00am NE 29 32 - - - - - - - 21.0 1018.3 7.8
23/05:59am ENE 28 32 - - - - - - - 21.1 1018.3 7.8
23/05:57am ENE 28 32 - - - - - - - 21.1 1018.4 7.8
23/05:50am ENE 28 33 - - - - - - - 21.0 1018.2 7.8
23/05:46am ENE 28 33 - - - - - - - 21.0 1018.2 7.8
23/05:30am ENE 29 35 - - - - - - - 21.0 1017.7 7.8
23/05:04am ENE 29 33 - - - - - - - 21.0 1017.3 7.8
23/05:00am ENE 28 33 - - - - - - - 20.9 1017.3 7.8
23/04:43am E 30 34 - - - - - - - 20.9 1016.8 7.8
23/04:37am E 29 34 - - - - - - - 20.9 1016.7 7.8
23/04:35am E 29 35 - - - - - - - 20.9 1016.6 7.8
23/04:30am E 29 35 - - - - - - - 20.8 1016.7 7.8
23/04:25am ENE 29 35 - - - - - - - 20.8 1016.8 7.8
23/04:15am E 33 42 - - - - - - - 20.0 1016.8 7.8
23/04:12am E 31 42 - - - - - - - 20.7 1016.6 7.8
23/04:02am SE 32 35 - - - - - - - 20.9 1016.9 7.8
23/04:00am SE 32 35 - - - - - - - 20.9 1016.8 7.8
23/03:57am SE 32 35 - - - - - - - 20.9 1016.9 7.8
23/03:36am E 30 34 - - - - - - - 21.0 1017.0 7.8
23/03:34am ESE 30 34 - - - - - - - 21.0 1017.0 7.8
23/03:30am ESE 30 35 - - - - - - - 21.0 1017.0 7.8
23/03:00am ESE 29 35 - - - - - - - 21.0 1016.9 7.8
23/02:45am SE 32 36 - - - - - - - 21.0 1016.7 7.8
23/02:43am SE 32 36 - - - - - - - 20.9 1016.7 7.8
23/02:30am SE 34 38 - - - - - - - 20.7 1016.5 7.8
23/02:00am ESE 33 40 - - - - - - - 21.0 1016.7 7.8
23/01:30am SE 33 37 - - - - - - - 21.0 1016.9 7.8
23/01:00am SE 33 37 - - - - - - - 20.8 1017.0 7.8
23/12:30am SE 33 37 - - - - - - - 20.6 1017.2 7.8
23/12:00am SE 34 37 - - - - - - - 20.3 1017.1 7.8
 
Date/Time
EST
Wind Sea
Height
m
Swell Vis
km
Cloud Weather Temp
°C
Press
MSL
hPa
Rain since
9am
mm
Dir  Spd
kts
Gust
kts
Height
m
Period
s
Dir
22/11:30pm SSE 38 43 - - - - - - - 19.5 1017.1 7.8
22/11:00pm SE 37 43 - - - - - - - 20.2 1017.1 7.8
22/10:30pm SE 30 38 - - - - - - - 20.4 1017.5 7.8
22/10:00pm SE 29 35 - - - - - - - 21.1 1017.8 7.8
22/09:30pm SE 31 35 - - - - - - - 21.0 1017.8 7.8
22/09:00pm SE 33 38 - - - - - - Recent precip. 20.8 1017.8 7.8
22/08:30pm SSE 27 33 - - - - - - - 19.9 1017.8 7.8
22/08:05pm SSE 29 39 - - - - - - - 18.5 1017.8 7.8
22/08:00pm SSE 31 39 - - - - - - - 18.5 1018.1 7.6
22/07:30pm SSE 30 38 - - - - - - - 19.0 1017.4 7.6
22/07:00pm SE 31 37 - - - - - - - 20.7 1017.0 7.6
22/06:30pm SSE 33 36 - - - - - - - 19.9 1016.7 7.6
22/06:00pm SSE 34 40 - - - - - - Recent precip. 19.3 1016.2 7.6
22/05:30pm SSE 34 38 - - - - - - - 18.6 1016.1 7.6
22/05:00pm SE 36 43 - - - - - - - 18.6 1016.0 6.6
22/04:30pm SSE 38 43 - - - - - - - 19.0 1015.5 4.4
22/04:11pm SSE 31 41 - - - - - - - 18.4 1015.3 4.2
22/04:00pm SSE 33 41 - - - - - - - 18.8 1015.5 3.8
22/03:54pm SSE 31 41 - - - - - - - 18.7 1015.2 3.8
22/03:30pm SE 30 35 - - - - - - - 18.9 1015.8 2.2
22/03:00pm SE 26 31 - - - - - - Rain 18.9 1015.8 2.0
22/02:30pm SE 28 34 - - - - - - - 19.5 1015.8 0.6
22/02:00pm SE 33 38 - - - - - - - 19.4 1015.4 0.6
22/01:30pm SSE 28 35 - - - - - - - 19.1 1015.3 0.6
22/01:00pm SSE 31 36 - - - - - - - 19.6 1015.7 0.2
22/12:30pm SE 23 28 - - - - - - - 21.0 1016.1 0.2
22/12:25pm SE 20 26 - - - - - - - 21.4 1016.1 0.2
22/12:00pm ESE 11 15 - - - - - - - 20.2 1016.5 0.2
22/11:38am SE 18 28 - - - - - - - 21.0 1016.5 0.2
22/11:30am SE 18 22 - - - - - - - 21.8 1016.7 0.2
22/11:00am SE 19 22 - - - - - - - 22.0 1017.1 0.2
22/10:30am SE 19 22 - - - - - - - 21.4 1017.7 0.2
22/10:00am ESE 19 22 - - - - - - - 21.3 1017.8 0.2
22/09:30am SE 19 23 - - - - - - - 20.8 1017.8 0.2
22/09:00am ESE 21 25 - - - - - - Rain 18.8 1018.1 9.8
22/08:30am SE 19 23 - - - - - - - 20.1 1018.1 9.6
22/08:00am SE 21 25 - - - - - - - 20.2 1017.9 9.6
22/07:30am SE 21 25 - - - - - - - 20.2 1017.8 9.6
22/07:00am SSE 19 21 - - - - - - - 19.4 1017.6 9.6
22/06:30am SE 21 30 - - - - - - - 20.0 1017.1 9.6
22/06:04am SE 21 31 - - - - - - - 19.1 1017.0 9.4
22/06:00am SE 20 24 - - - - - - Recent precip. 18.8 1017.1 9.4
22/05:30am SE 24 27 - - - - - - - 19.7 1016.8 9.2
22/05:00am ESE 23 29 - - - - - - - 19.5 1016.6 8.8
22/04:30am SE 23 27 - - - - - - - 19.8 1016.5 8.8
22/04:00am ESE 26 30 - - - - - - - 19.5 1016.6 8.8
22/03:30am ESE 27 32 - - - - - - - 19.2 1016.6 8.8
22/03:00am SE 25 31 - - - - - - - 19.3 1017.3 8.8
22/02:30am SE 29 33 - - - - - - - 18.9 1016.9 8.8
22/02:00am SE 29 34 - - - - - - - 18.6 1017.6 8.8
22/01:30am SE 27 31 - - - - - - - 17.9 1018.8 8.4
22/01:00am SE 26 32 - - - - - - - 18.2 1019.5 7.2
22/12:30am SE 23 29 - - - - - - - 19.7 1019.4 6.8
22/12:00am SE 28 32 - - - - - - - 19.7 1019.4 6.8
 
Date/Time
EST
Wind Sea
Height
m
Swell Vis
km
Cloud Weather Temp
°C
Press
MSL
hPa
Rain since
9am
mm
Dir  Spd
kts
Gust
kts
Height
m
Period
s
Dir
21/11:30pm SE 25 31 - - - - - - - 19.8 1019.5 6.8
21/11:00pm SE 26 32 - - - - - - - 19.7 1019.7 6.8
21/10:30pm SE 28 33 - - - - - - - 19.7 1019.6 6.8
21/10:00pm SE 29 35 - - - - - - - 19.4 1019.6 6.8
21/09:30pm SE 26 32 - - - - - - - 19.3 1020.0 6.8
21/09:00pm SE 30 34 - - - - - - - 19.2 1019.7 6.8
21/08:30pm SE 30 36 - - - - - - - 18.7 1019.7 6.8
21/08:00pm ESE 32 38 - - - - - - - 18.4 1019.5 6.8
21/07:30pm ESE 35 40 - - - - - - - 17.9 1019.5 6.8
21/07:00pm SE 35 41 - - - - - - - 18.2 1018.9 6.8
21/06:52pm SE 31 38 - - - - - - - 17.6 1019.3 6.8
21/06:30pm SSE 26 31 - - - - - - - 17.7 1021.6 6.2
21/06:00pm SE 31 35 - - - - - - Recent precip. 17.9 1020.5 5.8
21/05:30pm SSE 30 35 - - - - - - - 17.9 1020.4 5.2
21/05:00pm SE 33 37 - - - - - - - 18.3 1019.7 5.2
21/04:30pm SE 33 37 - - - - - - - 18.6 1019.5 4.8
21/04:00pm SE 34 37 - - - - - - - 18.3 1019.3 4.6
21/03:30pm SE 32 35 - - - - - - - 18.7 1019.3 4.2
21/03:00pm SE 31 35 - - - - - - Recent precip. 19.1 1019.2 4.0
21/02:30pm SE 33 39 - - - - - - - 18.5 1018.4 4.0
21/02:12pm SE 29 40 - - - - - - - 18.4 1018.2 3.8
21/02:00pm SE 30 38 - - - - - - - 18.4 1018.4 3.6
21/01:30pm SE 31 36 - - - - - - - 18.7 1019.0 3.0
21/01:00pm SE 25 30 - - - - - - - 18.5 1019.5 2.4
21/12:30pm SE 26 29 - - - - - - - 18.9 1019.7 1.8
21/12:00pm SE 21 25 - - - - - - Rain 19.0 1020.6 1.0
21/11:30am SE 23 29 - - - - - - - 19.4 1020.6 0.6
21/11:00am SE 25 30 - - - - - - - 19.3 1020.9 0.6
21/10:30am SE 21 26 - - - - - - - 19.5 1021.5 0.0
21/10:00am SE 22 29 - - - - - - - 19.4 1021.5 0.0
21/09:30am SE 26 32 - - - - - - - 19.1 1021.6 0.0
21/09:00am SE 25 29 - - - - - - Rain 18.4 1021.6 17.6
21/08:43am SE 29 34 - - - - - - - 18.6 1021.6 17.2
21/08:30am SE 21 24 - - - - - - - 18.5 1022.4 17.2
21/08:18am SE 26 31 - - - - - - - 17.4 1022.6 17.2
21/08:00am ESE 24 29 - - - - - - - 17.6 1022.6 16.4
21/07:30am ESE 23 31 - - - - - - - 17.7 1022.4 14.6
21/07:00am SE 27 34 - - - - - - - 18.6 1021.7 13.8
21/06:56am SE 24 34 - - - - - - - 18.7 1021.7 13.6
21/06:30am SE 27 34 - - - - - - - 18.0 1022.3 12.4
21/06:13am SE 27 37 - - - - - - - 18.0 1021.4 11.6
21/06:00am SE 28 34 - - - - - - Rain 17.9 1021.1 11.2
21/05:46am ESE 30 41 - - - - - - - 18.5 1020.9 10.0
21/05:30am SE 31 39 - - - - - - - 19.3 1020.6 9.8
21/05:17am ESE 28 37 - - - - - - - 18.8 1020.4 9.6
21/05:08am ESE 31 37 - - - - - - - 17.4 1020.3 8.8
21/05:00am SE 32 39 - - - - - - - 17.5 1020.6 6.8
21/04:30am SE 33 37 - - - - - - - 18.8 1020.6 5.4
21/04:00am SE 33 39 - - - - - - - 18.9 1020.5 5.2
21/03:30am SE 32 39 - - - - - - - 18.9 1020.7 4.8
21/03:00am SE 36 43 - - - - - - Recent precip. 18.9 1020.2 4.4
21/02:30am SE 33 40 - - - - - - - 18.8 1021.1 4.2
21/02:00am SSE 35 41 - - - - - - - 18.4 1020.8 4.2
21/01:30am SE 37 42 - - - - - - - 18.5 1021.5 4.0
21/01:00am SE 35 42 - - - - - - - 18.0 1021.6 4.0
21/12:30am SE 33 38 - - - - - - - 18.3 1021.9 4.0
21/12:00am SSE 34 38 - - - - - - Recent precip. 17.4 1022.2 4.0
 
Date/Time
EST
Wind Sea
Height
m
Swell Vis
km
Cloud Weather Temp
°C
Press
MSL
hPa
Rain since
9am
mm
Dir  Spd
kts
Gust
kts
Height
m
Period
s
Dir
20/11:38pm SE 38 48 - - - - - - - 17.5 1022.4 3.8
20/11:30pm SE 39 48 - - - - - - - 17.8 1022.2 3.8
20/11:27pm SE 37 44 - - - - - - - 18.1 1022.2 3.8
20/11:00pm SSE 31 37 - - - - - - - 17.9 1022.9 3.8
20/10:30pm SE 29 34 - - - - - - - 17.9 1023.6 3.2
20/10:00pm SSE 31 37 - - - - - - - 17.6 1023.5 3.0
20/09:30pm SSE 32 43 - - - - - - - 16.9 1023.8 2.0
20/09:25pm SSE 31 43 - - - - - - - 18.7 1023.7 1.4
20/09:22pm SSE 31 35 - - - - - - - 18.5 1023.8 1.4
20/09:00pm SE 33 48 - - - - - - Rain 18.5 1022.9 1.2
20/08:54pm ESE 36 46 - - - - - - - 18.5 1023.1 0.8
20/08:45pm SE 35 45 - - - - - - - 19.8 1022.7 0.2
20/08:30pm ESE 28 43 - - - - - - - 18.6 1023.1 0.2
20/08:23pm ESE 33 43 - - - - - - - 18.9 1023.1 0.0
20/08:00pm SE 33 40 - - - - - - - 21.3 1022.5 0.0
20/07:30pm SE 35 42 - - - - - - - 21.3 1022.1 0.0
20/07:00pm SE 34 40 - - - - - - - 21.1 1021.5 0.0
20/06:30pm SE 34 39 - - - - - - - 21.4 1021.6 0.0
20/06:00pm SE 30 37 - - - - - - - 21.2 1021.7 0.0
20/05:30pm SE 33 39 - - - - - - - 20.9 1021.6 0.0
20/05:00pm SE 30 37 - - - - - - - 20.2 1021.7 0.0
20/04:30pm SE 34 40 - - - - - - - 20.4 1021.4 0.0
20/04:00pm SE 31 36 - - - - - - - 20.7 1021.3 0.0
20/03:30pm SE 30 36 - - - - - - - 20.1 1021.2 0.0
20/03:00pm SE 29 36 - - - - - - - 20.7 1021.2 0.0
20/02:30pm SE 31 38 - - - - - - - 21.3 1021.1 0.0
20/02:00pm SE 31 36 - - - - - - - 21.6 1020.6 0.0
20/01:30pm SE 30 35 - - - - - - - 21.9 1020.8 0.0
20/01:00pm SE 28 33 - - - - - - - 21.7 1021.2 0.0
20/12:30pm SE 30 35 - - - - - - - 21.8 1021.2 0.0
20/12:00pm SE 31 37 - - - - - - - 21.9 1021.7 0.0
20/11:30am SE 31 36 - - - - - - - 21.9 1021.8 0.0
20/11:00am SE 29 35 - - - - - - - 22.2 1022.3 0.0
20/10:30am SE 29 36 - - - - - - - 22.0 1022.4 0.0
20/10:00am SE 31 36 - - - - - - - 21.6 1022.6 0.0
20/09:30am SE 33 40 - - - - - - - 22.0 1022.5 0.0
20/09:00am SE 32 38 - - - - - - - 21.7 1022.6 0.6
20/08:30am SE 29 38 - - - - - - - 21.6 1022.5 0.6
20/08:00am SE 33 40 - - - - - - - 20.8 1021.9 0.6
20/07:30am SE 31 38 - - - - - - - 21.6 1021.9 0.6
20/07:00am SE 34 39 - - - - - - - 21.5 1021.4 0.6
20/06:30am SE 33 38 - - - - - - - 21.2 1021.5 0.6

Other formats

Comma delimited format used in spreadsheet applications
http://www.bom.gov.au/fwo/IDQ60701/IDQ60701.94584.axf

JavaScript Object Notation format (JSON) in row-major order
http://www.bom.gov.au/fwo/IDQ60701/IDQ60701.94584.json

Data quality

Most of these data are generated automatically and are frequently updated. Quality checks on data are not normally performed. It is possible for incorrect values to appear. Refer to information at About Latest Weather Observations and please check the disclaimer before using these data.